sensor_id;sensor_type;location;lat;lon;timestamp;P1;durP1;ratioP1;P2;durP2;ratioP2
3918;SDS011;1974;48.670;8.994;2023-11-21T00:00:15;0.50;;;0.50;;
3918;SDS011;1974;48.670;8.994;2023-11-21T00:02:43;0.97;;;0.73;;
3918;SDS011;1974;48.670;8.994;2023-11-21T00:05:11;0.80;;;0.53;;
3918;SDS011;1974;48.670;8.994;2023-11-21T00:07:41;5.40;;;1.13;;
3918;SDS011;1974;48.670;8.994;2023-11-21T00:10:09;0.93;;;0.40;;
3918;SDS011;1974;48.670;8.994;2023-11-21T00:12:39;0.40;;;0.30;;
3918;SDS011;1974;48.670;8.994;2023-11-21T00:15:07;0.30;;;0.30;;
3918;SDS011;1974;48.670;8.994;2023-11-21T00:17:36;2.27;;;0.80;;
3918;SDS011;1974;48.670;8.994;2023-11-21T00:20:04;1.83;;;0.57;;
3918;SDS011;1974;48.670;8.994;2023-11-21T00:26:09;0.40;;;0.30;;
3918;SDS011;1974;48.670;8.994;2023-11-21T00:28:36;0.70;;;0.70;;
3918;SDS011;1974;48.670;8.994;2023-11-21T00:31:03;0.93;;;0.50;;
3918;SDS011;1974;48.670;8.994;2023-11-21T00:33:31;0.63;;;0.60;;
3918;SDS011;1974;48.670;8.994;2023-11-21T00:35:58;0.40;;;0.40;;
3918;SDS011;1974;48.670;8.994;2023-11-21T00:38:27;1.30;;;1.03;;
3918;SDS011;1974;48.670;8.994;2023-11-21T00:41:45;0.40;;;0.40;;
3918;SDS011;1974;48.670;8.994;2023-11-21T00:44:12;0.80;;;0.40;;
3918;SDS011;1974;48.670;8.994;2023-11-21T00:46:38;0.50;;;0.40;;
3918;SDS011;1974;48.670;8.994;2023-11-21T00:49:05;1.13;;;0.40;;
3918;SDS011;1974;48.670;8.994;2023-11-21T00:51:32;1.27;;;0.60;;
3918;SDS011;1974;48.670;8.994;2023-11-21T00:53:59;0.50;;;0.40;;
3918;SDS011;1974;48.670;8.994;2023-11-21T00:56:26;0.67;;;0.67;;
3918;SDS011;1974;48.670;8.994;2023-11-21T00:58:55;0.63;;;0.63;;
3918;SDS011;1974;48.670;8.994;2023-11-21T01:01:21;0.37;;;0.33;;
3918;SDS011;1974;48.670;8.994;2023-11-21T01:03:49;0.37;;;0.37;;
3918;SDS011;1974;48.670;8.994;2023-11-21T01:06:16;1.63;;;0.47;;
3918;SDS011;1974;48.670;8.994;2023-11-21T01:08:45;0.50;;;0.40;;
3918;SDS011;1974;48.670;8.994;2023-11-21T01:11:11;2.20;;;0.50;;
3918;SDS011;1974;48.670;8.994;2023-11-21T01:13:38;1.37;;;0.50;;
3918;SDS011;1974;48.670;8.994;2023-11-21T01:16:08;0.30;;;0.30;;
3918;SDS011;1974;48.670;8.994;2023-11-21T01:18:35;2.53;;;0.57;;
3918;SDS011;1974;48.670;8.994;2023-11-21T01:21:30;1.30;;;0.83;;
3918;SDS011;1974;48.670;8.994;2023-11-21T01:24:48;0.40;;;0.30;;
3918;SDS011;1974;48.670;8.994;2023-11-21T01:27:15;0.60;;;0.60;;
3918;SDS011;1974;48.670;8.994;2023-11-21T01:29:42;0.50;;;0.30;;
3918;SDS011;1974;48.670;8.994;2023-11-21T01:32:10;0.50;;;0.50;;
3918;SDS011;1974;48.670;8.994;2023-11-21T01:34:37;0.30;;;0.30;;
3918;SDS011;1974;48.670;8.994;2023-11-21T01:37:05;0.50;;;0.50;;
3918;SDS011;1974;48.670;8.994;2023-11-21T01:39:32;0.30;;;0.30;;
3918;SDS011;1974;48.670;8.994;2023-11-21T01:42:26;4.90;;;0.90;;
3918;SDS011;1974;48.670;8.994;2023-11-21T01:44:55;0.50;;;0.40;;
3918;SDS011;1974;48.670;8.994;2023-11-21T01:47:28;0.30;;;0.30;;
3918;SDS011;1974;48.670;8.994;2023-11-21T01:49:56;0.40;;;0.30;;
3918;SDS011;1974;48.670;8.994;2023-11-21T01:52:46;0.40;;;0.40;;
3918;SDS011;1974;48.670;8.994;2023-11-21T01:59:47;0.50;;;0.40;;
3918;SDS011;1974;48.670;8.994;2023-11-21T02:03:04;2.30;;;0.70;;
3918;SDS011;1974;48.670;8.994;2023-11-21T02:05:53;0.30;;;0.23;;
3918;SDS011;1974;48.670;8.994;2023-11-21T02:09:07;0.40;;;0.30;;
3918;SDS011;1974;48.670;8.994;2023-11-21T02:12:32;0.30;;;0.30;;
3918;SDS011;1974;48.670;8.994;2023-11-21T02:15:38;0.30;;;0.30;;
3918;SDS011;1974;48.670;8.994;2023-11-21T02:18:57;0.30;;;0.30;;
3918;SDS011;1974;48.670;8.994;2023-11-21T02:22:04;0.30;;;0.30;;
3918;SDS011;1974;48.670;8.994;2023-11-21T02:32:17;0.40;;;0.40;;
3918;SDS011;1974;48.670;8.994;2023-11-21T02:39:30;0.30;;;0.30;;
3918;SDS011;1974;48.670;8.994;2023-11-21T02:43:00;1.07;;;0.50;;
3918;SDS011;1974;48.670;8.994;2023-11-21T02:45:27;0.40;;;0.30;;
3918;SDS011;1974;48.670;8.994;2023-11-21T02:52:26;0.53;;;0.37;;
3918;SDS011;1974;48.670;8.994;2023-11-21T02:58:55;0.37;;;0.33;;
3918;SDS011;1974;48.670;8.994;2023-11-21T03:02:39;0.30;;;0.30;;
3918;SDS011;1974;48.670;8.994;2023-11-21T03:05:47;0.40;;;0.37;;
3918;SDS011;1974;48.670;8.994;2023-11-21T03:08:31;0.40;;;0.30;;
3918;SDS011;1974;48.670;8.994;2023-11-21T03:11:14;0.87;;;0.40;;
3918;SDS011;1974;48.670;8.994;2023-11-21T03:14:34;0.33;;;0.33;;
3918;SDS011;1974;48.670;8.994;2023-11-21T03:17:01;0.30;;;0.20;;
3918;SDS011;1974;48.670;8.994;2023-11-21T03:27:17;0.30;;;0.20;;
3918;SDS011;1974;48.670;8.994;2023-11-21T04:38:29;0.40;;;0.30;;
3918;SDS011;1974;48.670;8.994;2023-11-21T04:40:56;0.30;;;0.20;;
3918;SDS011;1974;48.670;8.994;2023-11-21T04:43:22;0.30;;;0.30;;
3918;SDS011;1974;48.670;8.994;2023-11-21T04:45:49;0.30;;;0.30;;
3918;SDS011;1974;48.670;8.994;2023-11-21T04:48:16;2.90;;;0.30;;
3918;SDS011;1974;48.670;8.994;2023-11-21T04:50:43;0.30;;;0.30;;
3918;SDS011;1974;48.670;8.994;2023-11-21T04:53:10;0.30;;;0.20;;
3918;SDS011;1974;48.670;8.994;2023-11-21T04:55:40;0.30;;;0.30;;
3918;SDS011;1974;48.670;8.994;2023-11-21T04:58:07;2.10;;;0.40;;
3918;SDS011;1974;48.670;8.994;2023-11-21T05:00:34;0.60;;;0.37;;
3918;SDS011;1974;48.670;8.994;2023-11-21T05:03:02;0.30;;;0.30;;
3918;SDS011;1974;48.670;8.994;2023-11-21T05:05:30;0.40;;;0.30;;
3918;SDS011;1974;48.670;8.994;2023-11-21T05:07:57;0.40;;;0.30;;
3918;SDS011;1974;48.670;8.994;2023-11-21T05:13:27;0.30;;;0.30;;
3918;SDS011;1974;48.670;8.994;2023-11-21T05:15:54;0.70;;;0.40;;
3918;SDS011;1974;48.670;8.994;2023-11-21T05:18:21;0.47;;;0.40;;
3918;SDS011;1974;48.670;8.994;2023-11-21T05:20:48;0.40;;;0.30;;
3918;SDS011;1974;48.670;8.994;2023-11-21T05:23:16;0.30;;;0.20;;
3918;SDS011;1974;48.670;8.994;2023-11-21T05:25:45;0.30;;;0.30;;
3918;SDS011;1974;48.670;8.994;2023-11-21T05:31:39;1.77;;;0.50;;
3918;SDS011;1974;48.670;8.994;2023-11-21T05:34:06;0.30;;;0.30;;
3918;SDS011;1974;48.670;8.994;2023-11-21T05:36:49;0.40;;;0.40;;
3918;SDS011;1974;48.670;8.994;2023-11-21T05:39:43;0.30;;;0.20;;
3918;SDS011;1974;48.670;8.994;2023-11-21T05:43:02;0.67;;;0.67;;
3918;SDS011;1974;48.670;8.994;2023-11-21T05:49:35;0.80;;;0.63;;
3918;SDS011;1974;48.670;8.994;2023-11-21T05:52:02;0.30;;;0.20;;
3918;SDS011;1974;48.670;8.994;2023-11-21T05:54:30;0.40;;;0.40;;
3918;SDS011;1974;48.670;8.994;2023-11-21T05:56:57;0.67;;;0.30;;
3918;SDS011;1974;48.670;8.994;2023-11-21T05:59:23;2.20;;;0.50;;
3918;SDS011;1974;48.670;8.994;2023-11-21T06:01:50;0.30;;;0.30;;
3918;SDS011;1974;48.670;8.994;2023-11-21T06:04:17;0.30;;;0.30;;
3918;SDS011;1974;48.670;8.994;2023-11-21T06:06:45;0.30;;;0.30;;
3918;SDS011;1974;48.670;8.994;2023-11-21T06:09:12;0.50;;;0.30;;
3918;SDS011;1974;48.670;8.994;2023-11-21T06:11:39;0.30;;;0.30;;
3918;SDS011;1974;48.670;8.994;2023-11-21T06:14:05;0.30;;;0.20;;
3918;SDS011;1974;48.670;8.994;2023-11-21T06:16:34;0.30;;;0.30;;
3918;SDS011;1974;48.670;8.994;2023-11-21T06:19:01;0.30;;;0.30;;
3918;SDS011;1974;48.670;8.994;2023-11-21T06:21:28;0.30;;;0.30;;
3918;SDS011;1974;48.670;8.994;2023-11-21T06:23:56;0.40;;;0.40;;
3918;SDS011;1974;48.670;8.994;2023-11-21T06:26:22;0.37;;;0.30;;
3918;SDS011;1974;48.670;8.994;2023-11-21T06:28:50;0.43;;;0.33;;
3918;SDS011;1974;48.670;8.994;2023-11-21T06:31:17;0.40;;;0.40;;
3918;SDS011;1974;48.670;8.994;2023-11-21T06:33:44;0.37;;;0.37;;
3918;SDS011;1974;48.670;8.994;2023-11-21T06:36:11;0.30;;;0.30;;
3918;SDS011;1974;48.670;8.994;2023-11-21T06:38:38;0.37;;;0.33;;
3918;SDS011;1974;48.670;8.994;2023-11-21T06:41:06;0.30;;;0.30;;
3918;SDS011;1974;48.670;8.994;2023-11-21T06:43:33;0.30;;;0.30;;
3918;SDS011;1974;48.670;8.994;2023-11-21T06:46:01;0.30;;;0.30;;
3918;SDS011;1974;48.670;8.994;2023-11-21T06:48:29;0.30;;;0.30;;
3918;SDS011;1974;48.670;8.994;2023-11-21T06:50:56;0.30;;;0.30;;
3918;SDS011;1974;48.670;8.994;2023-11-21T06:53:23;0.40;;;0.40;;
3918;SDS011;1974;48.670;8.994;2023-11-21T06:55:49;0.30;;;0.27;;
3918;SDS011;1974;48.670;8.994;2023-11-21T06:58:17;0.40;;;0.40;;
3918;SDS011;1974;48.670;8.994;2023-11-21T07:00:44;0.40;;;0.40;;
3918;SDS011;1974;48.670;8.994;2023-11-21T07:03:13;0.40;;;0.40;;
3918;SDS011;1974;48.670;8.994;2023-11-21T07:05:40;0.40;;;0.40;;
3918;SDS011;1974;48.670;8.994;2023-11-21T07:08:07;0.30;;;0.30;;
3918;SDS011;1974;48.670;8.994;2023-11-21T07:10:33;0.93;;;0.83;;
3918;SDS011;1974;48.670;8.994;2023-11-21T07:13:01;0.50;;;0.50;;
3918;SDS011;1974;48.670;8.994;2023-11-21T07:15:29;0.50;;;0.40;;
3918;SDS011;1974;48.670;8.994;2023-11-21T07:17:56;1.03;;;0.50;;
3918;SDS011;1974;48.670;8.994;2023-11-21T07:20:23;0.50;;;0.50;;
3918;SDS011;1974;48.670;8.994;2023-11-21T07:22:50;0.40;;;0.40;;
3918;SDS011;1974;48.670;8.994;2023-11-21T07:25:17;0.30;;;0.30;;
3918;SDS011;1974;48.670;8.994;2023-11-21T07:27:43;0.33;;;0.30;;
3918;SDS011;1974;48.670;8.994;2023-11-21T07:30:11;0.50;;;0.50;;
3918;SDS011;1974;48.670;8.994;2023-11-21T07:32:40;0.90;;;0.50;;
3918;SDS011;1974;48.670;8.994;2023-11-21T07:35:07;1.90;;;0.60;;
3918;SDS011;1974;48.670;8.994;2023-11-21T07:37:34;0.67;;;0.67;;
3918;SDS011;1974;48.670;8.994;2023-11-21T07:40:01;0.50;;;0.50;;
3918;SDS011;1974;48.670;8.994;2023-11-21T07:42:28;0.43;;;0.43;;
3918;SDS011;1974;48.670;8.994;2023-11-21T07:44:54;0.30;;;0.30;;
3918;SDS011;1974;48.670;8.994;2023-11-21T07:47:21;0.30;;;0.30;;
3918;SDS011;1974;48.670;8.994;2023-11-21T07:49:53;0.30;;;0.30;;
3918;SDS011;1974;48.670;8.994;2023-11-21T07:52:21;7.63;;;0.50;;
3918;SDS011;1974;48.670;8.994;2023-11-21T07:54:47;0.50;;;0.50;;
3918;SDS011;1974;48.670;8.994;2023-11-21T07:57:14;0.47;;;0.40;;
3918;SDS011;1974;48.670;8.994;2023-11-21T07:59:41;0.90;;;0.67;;
3918;SDS011;1974;48.670;8.994;2023-11-21T08:02:08;0.70;;;0.70;;
3918;SDS011;1974;48.670;8.994;2023-11-21T08:04:35;0.80;;;0.30;;
3918;SDS011;1974;48.670;8.994;2023-11-21T08:07:03;0.40;;;0.40;;
3918;SDS011;1974;48.670;8.994;2023-11-21T08:09:30;0.40;;;0.40;;
3918;SDS011;1974;48.670;8.994;2023-11-21T08:11:58;1.43;;;0.67;;
3918;SDS011;1974;48.670;8.994;2023-11-21T08:14:25;0.50;;;0.40;;
3918;SDS011;1974;48.670;8.994;2023-11-21T08:16:52;0.40;;;0.40;;
3918;SDS011;1974;48.670;8.994;2023-11-21T08:19:22;0.30;;;0.30;;
3918;SDS011;1974;48.670;8.994;2023-11-21T08:21:50;0.40;;;0.40;;
3918;SDS011;1974;48.670;8.994;2023-11-21T08:24:18;0.43;;;0.30;;
3918;SDS011;1974;48.670;8.994;2023-11-21T08:26:45;0.40;;;0.30;;
3918;SDS011;1974;48.670;8.994;2023-11-21T08:29:12;0.30;;;0.20;;
3918;SDS011;1974;48.670;8.994;2023-11-21T08:31:38;0.60;;;0.40;;
3918;SDS011;1974;48.670;8.994;2023-11-21T08:34:06;0.30;;;0.30;;
3918;SDS011;1974;48.670;8.994;2023-11-21T08:36:33;0.30;;;0.30;;
3918;SDS011;1974;48.670;8.994;2023-11-21T08:39:00;0.40;;;0.30;;
3918;SDS011;1974;48.670;8.994;2023-11-21T08:41:28;0.30;;;0.30;;
3918;SDS011;1974;48.670;8.994;2023-11-21T08:43:55;1.03;;;0.40;;
3918;SDS011;1974;48.670;8.994;2023-11-21T08:46:23;0.40;;;0.40;;
3918;SDS011;1974;48.670;8.994;2023-11-21T08:48:50;1.03;;;0.33;;
3918;SDS011;1974;48.670;8.994;2023-11-21T08:51:18;0.40;;;0.40;;
3918;SDS011;1974;48.670;8.994;2023-11-21T08:53:45;0.70;;;0.40;;
3918;SDS011;1974;48.670;8.994;2023-11-21T08:56:12;0.47;;;0.47;;
3918;SDS011;1974;48.670;8.994;2023-11-21T08:58:41;0.40;;;0.30;;
3918;SDS011;1974;48.670;8.994;2023-11-21T09:01:08;0.30;;;0.30;;
3918;SDS011;1974;48.670;8.994;2023-11-21T09:03:34;0.40;;;0.30;;
3918;SDS011;1974;48.670;8.994;2023-11-21T09:06:01;0.30;;;0.30;;
3918;SDS011;1974;48.670;8.994;2023-11-21T09:08:28;0.43;;;0.40;;
3918;SDS011;1974;48.670;8.994;2023-11-21T09:10:55;0.67;;;0.40;;
3918;SDS011;1974;48.670;8.994;2023-11-21T09:13:22;0.40;;;0.40;;
3918;SDS011;1974;48.670;8.994;2023-11-21T09:15:51;0.50;;;0.40;;
3918;SDS011;1974;48.670;8.994;2023-11-21T09:18:18;6.23;;;0.67;;
3918;SDS011;1974;48.670;8.994;2023-11-21T09:20:44;0.40;;;0.40;;
3918;SDS011;1974;48.670;8.994;2023-11-21T09:23:11;0.70;;;0.37;;
3918;SDS011;1974;48.670;8.994;2023-11-21T09:25:38;1.27;;;0.50;;
3918;SDS011;1974;48.670;8.994;2023-11-21T09:28:05;0.60;;;0.60;;
3918;SDS011;1974;48.670;8.994;2023-11-21T09:30:33;0.50;;;0.50;;
3918;SDS011;1974;48.670;8.994;2023-11-21T09:33:01;0.37;;;0.30;;
3918;SDS011;1974;48.670;8.994;2023-11-21T09:35:30;0.30;;;0.30;;
3918;SDS011;1974;48.670;8.994;2023-11-21T09:37:56;0.40;;;0.30;;
3918;SDS011;1974;48.670;8.994;2023-11-21T09:40:23;0.30;;;0.30;;
3918;SDS011;1974;48.670;8.994;2023-11-21T09:42:53;0.40;;;0.40;;
3918;SDS011;1974;48.670;8.994;2023-11-21T09:45:24;0.30;;;0.30;;
3918;SDS011;1974;48.670;8.994;2023-11-21T09:47:52;0.30;;;0.30;;
3918;SDS011;1974;48.670;8.994;2023-11-21T09:50:22;0.30;;;0.30;;
3918;SDS011;1974;48.670;8.994;2023-11-21T09:52:52;0.63;;;0.50;;
3918;SDS011;1974;48.670;8.994;2023-11-21T09:55:22;0.40;;;0.30;;
3918;SDS011;1974;48.670;8.994;2023-11-21T09:57:53;0.40;;;0.30;;
3918;SDS011;1974;48.670;8.994;2023-11-21T10:00:22;0.30;;;0.30;;
3918;SDS011;1974;48.670;8.994;2023-11-21T10:02:49;0.30;;;0.30;;
3918;SDS011;1974;48.670;8.994;2023-11-21T10:05:18;0.40;;;0.37;;
3918;SDS011;1974;48.670;8.994;2023-11-21T10:07:48;0.40;;;0.30;;
3918;SDS011;1974;48.670;8.994;2023-11-21T10:10:18;0.40;;;0.30;;
3918;SDS011;1974;48.670;8.994;2023-11-21T10:12:48;0.87;;;0.40;;
3918;SDS011;1974;48.670;8.994;2023-11-21T10:15:18;0.40;;;0.40;;
3918;SDS011;1974;48.670;8.994;2023-11-21T10:17:48;0.40;;;0.30;;
3918;SDS011;1974;48.670;8.994;2023-11-21T10:20:18;0.40;;;0.40;;
3918;SDS011;1974;48.670;8.994;2023-11-21T10:22:45;0.50;;;0.30;;
3918;SDS011;1974;48.670;8.994;2023-11-21T10:25:13;0.50;;;0.50;;
3918;SDS011;1974;48.670;8.994;2023-11-21T10:27:41;0.60;;;0.60;;
3918;SDS011;1974;48.670;8.994;2023-11-21T10:30:08;1.23;;;0.40;;
3918;SDS011;1974;48.670;8.994;2023-11-21T10:32:37;0.40;;;0.30;;
3918;SDS011;1974;48.670;8.994;2023-11-21T10:35:05;0.80;;;0.50;;
3918;SDS011;1974;48.670;8.994;2023-11-21T10:37:35;0.40;;;0.40;;
3918;SDS011;1974;48.670;8.994;2023-11-21T10:40:04;0.60;;;0.50;;
3918;SDS011;1974;48.670;8.994;2023-11-21T10:42:33;0.80;;;0.60;;
3918;SDS011;1974;48.670;8.994;2023-11-21T10:45:00;0.30;;;0.30;;
3918;SDS011;1974;48.670;8.994;2023-11-21T10:47:28;0.40;;;0.30;;
3918;SDS011;1974;48.670;8.994;2023-11-21T10:49:57;0.50;;;0.50;;
3918;SDS011;1974;48.670;8.994;2023-11-21T10:52:27;0.53;;;0.50;;
3918;SDS011;1974;48.670;8.994;2023-11-21T10:54:54;0.40;;;0.40;;
3918;SDS011;1974;48.670;8.994;2023-11-21T10:57:24;0.67;;;0.60;;
3918;SDS011;1974;48.670;8.994;2023-11-21T10:59:53;1.53;;;0.40;;
3918;SDS011;1974;48.670;8.994;2023-11-21T11:02:23;0.37;;;0.30;;
3918;SDS011;1974;48.670;8.994;2023-11-21T11:04:53;0.90;;;0.40;;
3918;SDS011;1974;48.670;8.994;2023-11-21T11:07:20;0.40;;;0.40;;
3918;SDS011;1974;48.670;8.994;2023-11-21T11:09:52;1.13;;;1.13;;
3918;SDS011;1974;48.670;8.994;2023-11-21T11:12:19;0.40;;;0.40;;
3918;SDS011;1974;48.670;8.994;2023-11-21T11:14:46;0.40;;;0.40;;
3918;SDS011;1974;48.670;8.994;2023-11-21T11:17:15;0.60;;;0.50;;
3918;SDS011;1974;48.670;8.994;2023-11-21T11:19:45;0.87;;;0.87;;
3918;SDS011;1974;48.670;8.994;2023-11-21T11:22:16;0.50;;;0.50;;
3918;SDS011;1974;48.670;8.994;2023-11-21T11:25:00;2.23;;;0.70;;
3918;SDS011;1974;48.670;8.994;2023-11-21T11:27:40;1.63;;;0.60;;
3918;SDS011;1974;48.670;8.994;2023-11-21T11:30:16;0.40;;;0.33;;
3918;SDS011;1974;48.670;8.994;2023-11-21T11:32:52;1.73;;;0.80;;
3918;SDS011;1974;48.670;8.994;2023-11-21T11:35:26;4.73;;;0.47;;
3918;SDS011;1974;48.670;8.994;2023-11-21T11:38:00;0.60;;;0.57;;
3918;SDS011;1974;48.670;8.994;2023-11-21T11:40:38;0.50;;;0.33;;
3918;SDS011;1974;48.670;8.994;2023-11-21T11:43:07;0.67;;;0.67;;
3918;SDS011;1974;48.670;8.994;2023-11-21T11:45:34;0.50;;;0.43;;
3918;SDS011;1974;48.670;8.994;2023-11-21T11:48:07;0.40;;;0.40;;
3918;SDS011;1974;48.670;8.994;2023-11-21T11:50:41;0.40;;;0.30;;
3918;SDS011;1974;48.670;8.994;2023-11-21T11:53:28;0.47;;;0.47;;
3918;SDS011;1974;48.670;8.994;2023-11-21T11:58:47;0.40;;;0.40;;
3918;SDS011;1974;48.670;8.994;2023-11-21T12:01:16;0.40;;;0.33;;
3918;SDS011;1974;48.670;8.994;2023-11-21T12:03:45;0.40;;;0.40;;
3918;SDS011;1974;48.670;8.994;2023-11-21T12:06:56;1.90;;;1.13;;
3918;SDS011;1974;48.670;8.994;2023-11-21T12:09:27;1.10;;;0.57;;
3918;SDS011;1974;48.670;8.994;2023-11-21T12:11:56;0.70;;;0.60;;
3918;SDS011;1974;48.670;8.994;2023-11-21T12:14:23;0.50;;;0.50;;
3918;SDS011;1974;48.670;8.994;2023-11-21T12:16:50;0.50;;;0.40;;
3918;SDS011;1974;48.670;8.994;2023-11-21T12:19:19;0.90;;;0.90;;
3918;SDS011;1974;48.670;8.994;2023-11-21T12:21:47;0.60;;;0.60;;
3918;SDS011;1974;48.670;8.994;2023-11-21T12:24:15;1.23;;;0.50;;
3918;SDS011;1974;48.670;8.994;2023-11-21T12:26:42;0.40;;;0.40;;
3918;SDS011;1974;48.670;8.994;2023-11-21T12:29:10;0.90;;;0.57;;
3918;SDS011;1974;48.670;8.994;2023-11-21T12:31:37;1.67;;;0.50;;
3918;SDS011;1974;48.670;8.994;2023-11-21T12:34:05;0.63;;;0.63;;
3918;SDS011;1974;48.670;8.994;2023-11-21T12:36:33;1.27;;;0.87;;
3918;SDS011;1974;48.670;8.994;2023-11-21T12:39:01;0.53;;;0.53;;
3918;SDS011;1974;48.670;8.994;2023-11-21T12:41:28;1.50;;;1.30;;
3918;SDS011;1974;48.670;8.994;2023-11-21T12:43:56;0.67;;;0.50;;
3918;SDS011;1974;48.670;8.994;2023-11-21T12:46:23;1.13;;;0.70;;
3918;SDS011;1974;48.670;8.994;2023-11-21T12:48:54;1.73;;;0.80;;
3918;SDS011;1974;48.670;8.994;2023-11-21T12:51:21;0.40;;;0.40;;
3918;SDS011;1974;48.670;8.994;2023-11-21T12:53:49;0.80;;;0.67;;
3918;SDS011;1974;48.670;8.994;2023-11-21T12:56:17;1.23;;;0.40;;
3918;SDS011;1974;48.670;8.994;2023-11-21T12:58:48;0.90;;;0.90;;
3918;SDS011;1974;48.670;8.994;2023-11-21T13:01:16;0.90;;;0.87;;
3918;SDS011;1974;48.670;8.994;2023-11-21T13:03:45;0.50;;;0.50;;
3918;SDS011;1974;48.670;8.994;2023-11-21T13:06:15;0.57;;;0.43;;
3918;SDS011;1974;48.670;8.994;2023-11-21T13:08:44;0.60;;;0.60;;
3918;SDS011;1974;48.670;8.994;2023-11-21T13:11:13;0.47;;;0.47;;
3918;SDS011;1974;48.670;8.994;2023-11-21T13:13:40;0.77;;;0.77;;
3918;SDS011;1974;48.670;8.994;2023-11-21T13:16:08;0.50;;;0.50;;
3918;SDS011;1974;48.670;8.994;2023-11-21T13:18:36;1.30;;;0.67;;
3918;SDS011;1974;48.670;8.994;2023-11-21T13:21:05;0.40;;;0.40;;
3918;SDS011;1974;48.670;8.994;2023-11-21T13:23:37;1.10;;;0.53;;
3918;SDS011;1974;48.670;8.994;2023-11-21T13:26:05;1.43;;;0.67;;
3918;SDS011;1974;48.670;8.994;2023-11-21T13:28:35;1.37;;;0.90;;
3918;SDS011;1974;48.670;8.994;2023-11-21T13:31:03;2.80;;;1.03;;
3918;SDS011;1974;48.670;8.994;2023-11-21T13:33:45;1.00;;;1.00;;
3918;SDS011;1974;48.670;8.994;2023-11-21T13:36:16;5.50;;;1.40;;
3918;SDS011;1974;48.670;8.994;2023-11-21T13:38:47;2.23;;;1.43;;
3918;SDS011;1974;48.670;8.994;2023-11-21T13:41:14;3.90;;;0.70;;
3918;SDS011;1974;48.670;8.994;2023-11-21T13:43:44;1.33;;;0.93;;
3918;SDS011;1974;48.670;8.994;2023-11-21T13:46:17;0.80;;;0.70;;
3918;SDS011;1974;48.670;8.994;2023-11-21T13:48:47;1.47;;;0.70;;
3918;SDS011;1974;48.670;8.994;2023-11-21T13:51:16;0.80;;;0.70;;
3918;SDS011;1974;48.670;8.994;2023-11-21T13:53:43;0.83;;;0.50;;
3918;SDS011;1974;48.670;8.994;2023-11-21T13:56:12;0.93;;;0.93;;
3918;SDS011;1974;48.670;8.994;2023-11-21T13:58:44;3.50;;;0.67;;
3918;SDS011;1974;48.670;8.994;2023-11-21T14:01:16;1.17;;;0.40;;
3918;SDS011;1974;48.670;8.994;2023-11-21T14:04:06;0.30;;;0.23;;
3918;SDS011;1974;48.670;8.994;2023-11-21T14:06:44;2.73;;;0.40;;
3918;SDS011;1974;48.670;8.994;2023-11-21T14:09:13;0.60;;;0.40;;
3918;SDS011;1974;48.670;8.994;2023-11-21T14:11:47;0.40;;;0.30;;
3918;SDS011;1974;48.670;8.994;2023-11-21T14:14:19;0.50;;;0.30;;
3918;SDS011;1974;48.670;8.994;2023-11-21T14:16:47;0.30;;;0.30;;
3918;SDS011;1974;48.670;8.994;2023-11-21T14:19:14;0.40;;;0.30;;
3918;SDS011;1974;48.670;8.994;2023-11-21T14:21:41;0.53;;;0.43;;
3918;SDS011;1974;48.670;8.994;2023-11-21T14:24:09;0.40;;;0.30;;
3918;SDS011;1974;48.670;8.994;2023-11-21T14:26:37;0.50;;;0.50;;
3918;SDS011;1974;48.670;8.994;2023-11-21T14:29:05;0.40;;;0.40;;
3918;SDS011;1974;48.670;8.994;2023-11-21T14:31:34;0.60;;;0.60;;
3918;SDS011;1974;48.670;8.994;2023-11-21T14:34:02;0.40;;;0.37;;
3918;SDS011;1974;48.670;8.994;2023-11-21T14:36:31;0.40;;;0.40;;
3918;SDS011;1974;48.670;8.994;2023-11-21T14:38:58;0.50;;;0.50;;
3918;SDS011;1974;48.670;8.994;2023-11-21T14:41:24;1.30;;;1.10;;
3918;SDS011;1974;48.670;8.994;2023-11-21T14:43:53;0.40;;;0.30;;
3918;SDS011;1974;48.670;8.994;2023-11-21T14:46:20;0.50;;;0.50;;
3918;SDS011;1974;48.670;8.994;2023-11-21T14:48:48;0.60;;;0.60;;
3918;SDS011;1974;48.670;8.994;2023-11-21T14:51:23;0.60;;;0.60;;
3918;SDS011;1974;48.670;8.994;2023-11-21T14:53:57;1.67;;;0.80;;
3918;SDS011;1974;48.670;8.994;2023-11-21T14:56:31;0.33;;;0.30;;
3918;SDS011;1974;48.670;8.994;2023-11-21T14:58:59;0.37;;;0.37;;
3918;SDS011;1974;48.670;8.994;2023-11-21T15:01:34;0.57;;;0.40;;
3918;SDS011;1974;48.670;8.994;2023-11-21T15:04:19;0.50;;;0.50;;
3918;SDS011;1974;48.670;8.994;2023-11-21T15:06:56;0.93;;;0.77;;
3918;SDS011;1974;48.670;8.994;2023-11-21T15:09:23;3.00;;;1.93;;
3918;SDS011;1974;48.670;8.994;2023-11-21T15:12:01;1.13;;;0.97;;
3918;SDS011;1974;48.670;8.994;2023-11-21T15:14:37;1.37;;;1.27;;
3918;SDS011;1974;48.670;8.994;2023-11-21T15:17:04;0.90;;;0.80;;
3918;SDS011;1974;48.670;8.994;2023-11-21T15:19:33;0.83;;;0.83;;
3918;SDS011;1974;48.670;8.994;2023-11-21T15:22:01;1.93;;;1.10;;
3918;SDS011;1974;48.670;8.994;2023-11-21T15:24:28;1.10;;;0.63;;
3918;SDS011;1974;48.670;8.994;2023-11-21T15:26:54;0.90;;;0.80;;
3918;SDS011;1974;48.670;8.994;2023-11-21T15:29:21;0.97;;;0.70;;
3918;SDS011;1974;48.670;8.994;2023-11-21T15:31:49;0.73;;;0.73;;
3918;SDS011;1974;48.670;8.994;2023-11-21T15:34:20;0.60;;;0.60;;
3918;SDS011;1974;48.670;8.994;2023-11-21T15:36:48;2.83;;;1.13;;
3918;SDS011;1974;48.670;8.994;2023-11-21T15:39:18;1.53;;;0.60;;
3918;SDS011;1974;48.670;8.994;2023-11-21T15:41:46;0.57;;;0.57;;
3918;SDS011;1974;48.670;8.994;2023-11-21T15:44:13;0.77;;;0.50;;
3918;SDS011;1974;48.670;8.994;2023-11-21T15:46:40;0.50;;;0.50;;
3918;SDS011;1974;48.670;8.994;2023-11-21T15:49:07;2.57;;;1.13;;
3918;SDS011;1974;48.670;8.994;2023-11-21T15:51:37;1.57;;;1.27;;
3918;SDS011;1974;48.670;8.994;2023-11-21T15:54:06;1.10;;;1.00;;
3918;SDS011;1974;48.670;8.994;2023-11-21T15:56:34;1.97;;;1.77;;
3918;SDS011;1974;48.670;8.994;2023-11-21T15:59:01;4.47;;;2.07;;
3918;SDS011;1974;48.670;8.994;2023-11-21T16:01:28;1.07;;;0.90;;
3918;SDS011;1974;48.670;8.994;2023-11-21T16:03:55;4.00;;;1.27;;
3918;SDS011;1974;48.670;8.994;2023-11-21T16:06:25;1.27;;;0.90;;
3918;SDS011;1974;48.670;8.994;2023-11-21T16:08:52;2.47;;;1.43;;
3918;SDS011;1974;48.670;8.994;2023-11-21T16:11:22;1.27;;;1.07;;
3918;SDS011;1974;48.670;8.994;2023-11-21T16:13:49;1.27;;;0.80;;
3918;SDS011;1974;48.670;8.994;2023-11-21T16:16:19;0.87;;;0.83;;
3918;SDS011;1974;48.670;8.994;2023-11-21T16:18:47;1.20;;;0.70;;
3918;SDS011;1974;48.670;8.994;2023-11-21T16:21:13;0.80;;;0.70;;
3918;SDS011;1974;48.670;8.994;2023-11-21T16:23:41;0.60;;;0.60;;
3918;SDS011;1974;48.670;8.994;2023-11-21T16:26:08;0.80;;;0.80;;
3918;SDS011;1974;48.670;8.994;2023-11-21T16:28:38;1.50;;;1.40;;
3918;SDS011;1974;48.670;8.994;2023-11-21T16:31:06;0.83;;;0.83;;
3918;SDS011;1974;48.670;8.994;2023-11-21T16:33:33;1.60;;;1.50;;
3918;SDS011;1974;48.670;8.994;2023-11-21T16:36:01;1.40;;;1.30;;
3918;SDS011;1974;48.670;8.994;2023-11-21T16:38:28;1.10;;;1.00;;
3918;SDS011;1974;48.670;8.994;2023-11-21T16:40:54;1.87;;;1.77;;
3918;SDS011;1974;48.670;8.994;2023-11-21T16:43:23;3.53;;;2.23;;
3918;SDS011;1974;48.670;8.994;2023-11-21T16:45:51;1.33;;;1.20;;
3918;SDS011;1974;48.670;8.994;2023-11-21T16:48:18;3.17;;;1.40;;
3918;SDS011;1974;48.670;8.994;2023-11-21T16:50:45;2.20;;;2.00;;
3918;SDS011;1974;48.670;8.994;2023-11-21T16:53:11;2.30;;;2.13;;
3918;SDS011;1974;48.670;8.994;2023-11-21T16:55:39;2.87;;;1.43;;
3918;SDS011;1974;48.670;8.994;2023-11-21T16:58:05;4.30;;;1.97;;
3918;SDS011;1974;48.670;8.994;2023-11-21T17:00:32;2.03;;;1.13;;
3918;SDS011;1974;48.670;8.994;2023-11-21T17:03:00;1.47;;;0.90;;
3918;SDS011;1974;48.670;8.994;2023-11-21T17:05:27;1.73;;;1.20;;
3918;SDS011;1974;48.670;8.994;2023-11-21T17:07:54;2.67;;;1.70;;
3918;SDS011;1974;48.670;8.994;2023-11-21T17:10:21;3.60;;;2.40;;
3918;SDS011;1974;48.670;8.994;2023-11-21T17:12:48;1.60;;;1.33;;
3918;SDS011;1974;48.670;8.994;2023-11-21T17:15:15;2.77;;;1.50;;
3918;SDS011;1974;48.670;8.994;2023-11-21T17:17:42;5.40;;;1.80;;
3918;SDS011;1974;48.670;8.994;2023-11-21T17:20:10;1.47;;;1.20;;
3918;SDS011;1974;48.670;8.994;2023-11-21T17:22:38;2.87;;;1.33;;
3918;SDS011;1974;48.670;8.994;2023-11-21T17:25:06;1.23;;;0.80;;
3918;SDS011;1974;48.670;8.994;2023-11-21T17:27:34;1.40;;;0.80;;
3918;SDS011;1974;48.670;8.994;2023-11-21T17:30:02;2.30;;;1.30;;
3918;SDS011;1974;48.670;8.994;2023-11-21T17:33:29;2.57;;;1.27;;
3918;SDS011;1974;48.670;8.994;2023-11-21T17:36:17;1.30;;;1.20;;